DAL4638 KSEA-KLAS
Flight info
| Callsign | DAL4638 |
|---|---|
| Flight time | 1h 58m |
| Altitude | 39000 |
| Route | SUMMA2 LKV RYANN J92 OAL TQILA COKTL4 |
| Aircraft | A20N/M-SDE2E3FGHIRWXY/LB1 |
Departure
| Time | 2026-05-05 15:11 |
|---|---|
| Airport | Seattle–Tacoma International Airport (KSEA) |
Arrival
| Time | 2026-05-05 17:10 |
|---|---|
| Airport | Harry Reid International Airport (KLAS) |
| Time | Latitude | Longitude | Altitude | Speed | Heading |
|---|---|---|---|---|---|
| 2026-05-05 15:01 | 47.44637 | -122.30297 | 397 ft | 0 kts | 245° |
| 2026-05-05 15:03 | 47.44643 | -122.30282 | 381 ft | 3 kts | 240° |
| 2026-05-05 15:03 | 47.44654 | -122.30255 | 390 ft | 4 kts | 235° |
| 2026-05-05 15:03 | 47.44668 | -122.30222 | 392 ft | 4 kts | 249° |
| 2026-05-05 15:03 | 47.44674 | -122.30192 | 397 ft | 4 kts | 272° |
| 2026-05-05 15:04 | 47.44672 | -122.30162 | 397 ft | 0 kts | 275° |
| 2026-05-05 15:06 | 47.44675 | -122.30182 | 397 ft | 5 kts | 282° |
| 2026-05-05 15:06 | 47.44692 | -122.30256 | 395 ft | 10 kts | 299° |
| 2026-05-05 15:07 | 47.44736 | -122.30351 | 397 ft | 12 kts | 304° |
| 2026-05-05 15:07 | 47.44785 | -122.30450 | 393 ft | 12 kts | 307° |
| 2026-05-05 15:07 | 47.44810 | -122.30568 | 397 ft | 12 kts | 285° |
| 2026-05-05 15:07 | 47.44874 | -122.30626 | 394 ft | 13 kts | 358° |
| 2026-05-05 15:08 | 47.44976 | -122.30625 | 397 ft | 17 kts | 0° |
| 2026-05-05 15:08 | 47.45105 | -122.30626 | 394 ft | 20 kts | 360° |
| 2026-05-05 15:08 | 47.45259 | -122.30625 | 394 ft | 24 kts | 0° |
| 2026-05-05 15:08 | 47.45436 | -122.30624 | 395 ft | 27 kts | 1° |
| 2026-05-05 15:09 | 47.45622 | -122.30622 | 397 ft | 28 kts | 1° |
| 2026-05-05 15:09 | 47.45812 | -122.30619 | 396 ft | 27 kts | 0° |
| 2026-05-05 15:09 | 47.46000 | -122.30618 | 391 ft | 27 kts | 1° |
| 2026-05-05 15:09 | 47.46181 | -122.30615 | 397 ft | 26 kts | 1° |
| 2026-05-05 15:10 | 47.46336 | -122.30614 | 396 ft | 16 kts | 353° |
| 2026-05-05 15:10 | 47.46373 | -122.30728 | 397 ft | 13 kts | 263° |
| 2026-05-05 15:10 | 47.46342 | -122.30777 | 395 ft | 9 kts | 193° |
| 2026-05-05 15:10 | 47.46290 | -122.30779 | 397 ft | 20 kts | 180° |
| 2026-05-05 15:11 | 47.46097 | -122.30781 | 396 ft | 63 kts | 180° |
| 2026-05-05 15:11 | 47.45147 | -122.30787 | 395 ft | 141 kts | 180° |
| 2026-05-05 15:11 | 47.44079 | -122.30790 | 740 ft | 153 kts | 181° |
| 2026-05-05 15:11 | 47.43030 | -122.30728 | 1383 ft | 149 kts | 179° |
| 2026-05-05 15:12 | 47.42342 | -122.30710 | 1761 ft | 150 kts | 179° |
| 2026-05-05 15:12 | 47.40922 | -122.30699 | 2495 ft | 160 kts | 180° |
| 2026-05-05 15:12 | 47.40165 | -122.30675 | 2859 ft | 168 kts | 179° |
| 2026-05-05 15:12 | 47.38961 | -122.30602 | 3396 ft | 180 kts | 179° |
| 2026-05-05 15:13 | 47.37197 | -122.30646 | 3966 ft | 200 kts | 182° |
| 2026-05-05 15:13 | 47.36255 | -122.30680 | 4214 ft | 209 kts | 181° |
| 2026-05-05 15:13 | 47.34758 | -122.30694 | 4564 ft | 221 kts | 180° |
| 2026-05-05 15:13 | 47.32636 | -122.30721 | 4926 ft | 239 kts | 181° |
| 2026-05-05 15:14 | 47.30931 | -122.30766 | 5133 ft | 253 kts | 180° |
| 2026-05-05 15:14 | 47.29717 | -122.30781 | 5267 ft | 264 kts | 180° |
| 2026-05-05 15:14 | 47.27843 | -122.30792 | 5469 ft | 279 kts | 180° |
| 2026-05-05 15:14 | 47.25881 | -122.30840 | 5878 ft | 285 kts | 180° |
| 2026-05-05 15:15 | 47.23917 | -122.30562 | 6404 ft | 284 kts | 163° |
| 2026-05-05 15:15 | 47.22031 | -122.29674 | 6871 ft | 286 kts | 159° |
| 2026-05-05 15:15 | 47.20154 | -122.28693 | 7407 ft | 286 kts | 159° |
| 2026-05-05 15:15 | 47.17657 | -122.27402 | 8092 ft | 289 kts | 160° |
| 2026-05-05 15:16 | 47.16370 | -122.26743 | 8452 ft | 290 kts | 160° |
| 2026-05-05 15:16 | 47.14456 | -122.25762 | 9016 ft | 292 kts | 160° |
| 2026-05-05 15:16 | 47.12533 | -122.24774 | 9558 ft | 294 kts | 160° |
| 2026-05-05 15:16 | 47.10622 | -122.23790 | 10083 ft | 296 kts | 160° |
| 2026-05-05 15:17 | 47.08642 | -122.22769 | 10322 ft | 308 kts | 160° |
| 2026-05-05 15:17 | 47.06581 | -122.21707 | 10505 ft | 320 kts | 160° |
| 2026-05-05 15:17 | 47.04451 | -122.20610 | 10736 ft | 328 kts | 160° |
| 2026-05-05 15:17 | 47.02280 | -122.19494 | 11081 ft | 332 kts | 160° |
| 2026-05-05 15:18 | 47.00086 | -122.18366 | 11435 ft | 335 kts | 160° |
| 2026-05-05 15:18 | 46.97874 | -122.17231 | 11793 ft | 338 kts | 159° |
| 2026-05-05 15:18 | 46.95642 | -122.16085 | 12139 ft | 341 kts | 159° |
| 2026-05-05 15:18 | 46.93425 | -122.14949 | 12450 ft | 344 kts | 159° |
| 2026-05-05 15:19 | 46.91157 | -122.13787 | 12741 ft | 350 kts | 159° |
| 2026-05-05 15:19 | 46.88802 | -122.12580 | 13086 ft | 366 kts | 159° |
| 2026-05-05 15:19 | 46.86371 | -122.11336 | 13742 ft | 374 kts | 159° |
| 2026-05-05 15:19 | 46.83896 | -122.10072 | 14366 ft | 380 kts | 159° |
| 2026-05-05 15:20 | 46.81388 | -122.08793 | 14994 ft | 385 kts | 159° |
| 2026-05-05 15:20 | 46.78843 | -122.07495 | 15653 ft | 390 kts | 159° |
| 2026-05-05 15:20 | 46.76264 | -122.06178 | 16283 ft | 395 kts | 159° |
| 2026-05-05 15:20 | 46.73657 | -122.04851 | 16919 ft | 399 kts | 158° |
| 2026-05-05 15:21 | 46.71055 | -122.03530 | 17572 ft | 404 kts | 158° |
| 2026-05-05 15:21 | 46.68385 | -122.02178 | 18199 ft | 409 kts | 158° |
| 2026-05-05 15:21 | 46.65687 | -122.00803 | 18743 ft | 413 kts | 158° |
| 2026-05-05 15:21 | 46.62968 | -121.99416 | 19368 ft | 415 kts | 158° |
| 2026-05-05 15:22 | 46.60189 | -121.98176 | 19930 ft | 420 kts | 162° |
| 2026-05-05 15:22 | 46.57353 | -121.97073 | 20488 ft | 424 kts | 163° |
| 2026-05-05 15:22 | 46.54483 | -121.95981 | 21039 ft | 429 kts | 163° |
| 2026-05-05 15:22 | 46.51590 | -121.94878 | 21598 ft | 431 kts | 163° |
| 2026-05-05 15:23 | 46.48720 | -121.93782 | 22124 ft | 434 kts | 163° |
| 2026-05-05 15:23 | 46.45788 | -121.92659 | 22645 ft | 438 kts | 163° |
| 2026-05-05 15:23 | 46.42828 | -121.91525 | 23176 ft | 442 kts | 163° |
| 2026-05-05 15:23 | 46.39839 | -121.90393 | 23612 ft | 446 kts | 164° |
| 2026-05-05 15:24 | 46.36825 | -121.89246 | 24079 ft | 449 kts | 163° |
| 2026-05-05 15:24 | 46.33797 | -121.88082 | 24535 ft | 452 kts | 163° |
| 2026-05-05 15:24 | 46.30752 | -121.86912 | 24966 ft | 455 kts | 163° |
| 2026-05-05 15:24 | 46.27685 | -121.85740 | 25382 ft | 457 kts | 164° |
| 2026-05-05 15:25 | 46.24597 | -121.84573 | 25800 ft | 460 kts | 164° |
| 2026-05-05 15:25 | 46.21490 | -121.83379 | 26109 ft | 465 kts | 163° |
| 2026-05-05 15:25 | 46.18396 | -121.82195 | 26542 ft | 467 kts | 163° |
| 2026-05-05 15:25 | 46.15251 | -121.80997 | 26959 ft | 469 kts | 163° |
| 2026-05-05 15:26 | 46.12083 | -121.79793 | 27346 ft | 472 kts | 163° |
| 2026-05-05 15:26 | 46.08898 | -121.78586 | 27742 ft | 474 kts | 163° |
| 2026-05-05 15:26 | 46.05705 | -121.77376 | 28107 ft | 476 kts | 163° |
| 2026-05-05 15:26 | 46.02491 | -121.76163 | 28465 ft | 479 kts | 163° |
| 2026-05-05 15:27 | 45.99257 | -121.74943 | 28797 ft | 481 kts | 163° |
| 2026-05-05 15:27 | 45.96011 | -121.73717 | 29128 ft | 484 kts | 163° |
| 2026-05-05 15:27 | 45.92741 | -121.72482 | 29466 ft | 487 kts | 163° |
| 2026-05-05 15:27 | 45.89504 | -121.71262 | 29803 ft | 489 kts | 163° |
| 2026-05-05 15:28 | 45.86204 | -121.70019 | 30216 ft | 489 kts | 163° |
| 2026-05-05 15:28 | 45.82910 | -121.68782 | 30588 ft | 489 kts | 163° |
| 2026-05-05 15:28 | 45.79628 | -121.67551 | 30987 ft | 488 kts | 163° |
| 2026-05-05 15:28 | 45.76343 | -121.66320 | 31347 ft | 487 kts | 163° |
| 2026-05-05 15:29 | 45.73063 | -121.65094 | 31662 ft | 488 kts | 163° |
| 2026-05-05 15:29 | 45.69776 | -121.63881 | 31976 ft | 487 kts | 163° |
| 2026-05-05 15:29 | 45.66534 | -121.62671 | 32308 ft | 488 kts | 163° |
| 2026-05-05 15:29 | 45.63247 | -121.61441 | 32597 ft | 488 kts | 163° |
| 2026-05-05 15:30 | 45.59961 | -121.60217 | 32931 ft | 488 kts | 163° |
| 2026-05-05 15:30 | 45.56679 | -121.58991 | 33224 ft | 488 kts | 163° |
| 2026-05-05 15:30 | 45.53397 | -121.57767 | 33578 ft | 487 kts | 163° |
| 2026-05-05 15:30 | 45.50120 | -121.56549 | 33879 ft | 487 kts | 163° |
| 2026-05-05 15:31 | 45.46841 | -121.55333 | 34140 ft | 487 kts | 163° |
| 2026-05-05 15:31 | 45.43565 | -121.54118 | 34411 ft | 487 kts | 163° |
| 2026-05-05 15:31 | 45.40286 | -121.52905 | 34663 ft | 486 kts | 163° |
| 2026-05-05 15:31 | 45.37014 | -121.51697 | 34919 ft | 486 kts | 163° |
| 2026-05-05 15:32 | 45.33788 | -121.50508 | 35160 ft | 486 kts | 162° |
| 2026-05-05 15:32 | 45.30519 | -121.49304 | 35354 ft | 486 kts | 162° |
| 2026-05-05 15:32 | 45.27247 | -121.48100 | 35583 ft | 485 kts | 162° |
| 2026-05-05 15:32 | 45.23976 | -121.46899 | 35797 ft | 485 kts | 162° |
| 2026-05-05 15:33 | 45.20704 | -121.45703 | 35957 ft | 486 kts | 162° |
| 2026-05-05 15:33 | 45.17434 | -121.44504 | 36200 ft | 485 kts | 162° |
| 2026-05-05 15:33 | 45.14166 | -121.43305 | 36403 ft | 485 kts | 162° |
| 2026-05-05 15:33 | 45.10899 | -121.42108 | 36610 ft | 485 kts | 162° |
| 2026-05-05 15:34 | 45.07633 | -121.40913 | 36804 ft | 485 kts | 162° |
| 2026-05-05 15:34 | 45.04411 | -121.39737 | 36971 ft | 485 kts | 162° |
| 2026-05-05 15:34 | 45.01150 | -121.38548 | 37227 ft | 483 kts | 162° |
| 2026-05-05 15:34 | 44.97900 | -121.37365 | 37421 ft | 483 kts | 161° |
| 2026-05-05 15:35 | 44.94647 | -121.36182 | 37581 ft | 483 kts | 161° |
| 2026-05-05 15:35 | 44.91393 | -121.34999 | 37743 ft | 483 kts | 161° |
| 2026-05-05 15:35 | 44.88144 | -121.33820 | 37910 ft | 482 kts | 161° |
| 2026-05-05 15:35 | 44.84889 | -121.32640 | 38061 ft | 483 kts | 161° |
| 2026-05-05 15:36 | 44.81639 | -121.31464 | 38228 ft | 483 kts | 161° |
| 2026-05-05 15:36 | 44.78388 | -121.30288 | 38422 ft | 482 kts | 161° |
| 2026-05-05 15:36 | 44.75177 | -121.29129 | 38541 ft | 483 kts | 161° |
| 2026-05-05 15:36 | 44.71931 | -121.27957 | 38677 ft | 483 kts | 161° |
| 2026-05-05 15:37 | 44.68681 | -121.26786 | 38783 ft | 483 kts | 161° |
| 2026-05-05 15:37 | 44.65428 | -121.25616 | 38897 ft | 482 kts | 161° |
| 2026-05-05 15:37 | 44.62177 | -121.24447 | 38938 ft | 484 kts | 161° |
| 2026-05-05 15:38 | 44.55656 | -121.22107 | 38937 ft | 483 kts | 161° |
| 2026-05-05 15:38 | 44.49146 | -121.19776 | 38942 ft | 483 kts | 161° |
| 2026-05-05 15:39 | 44.42678 | -121.17466 | 38938 ft | 483 kts | 161° |
| 2026-05-05 15:39 | 44.36170 | -121.15146 | 38939 ft | 483 kts | 161° |
| 2026-05-05 15:40 | 44.29657 | -121.12830 | 39007 ft | 483 kts | 161° |
| 2026-05-05 15:40 | 44.23145 | -121.10520 | 39006 ft | 483 kts | 161° |
| 2026-05-05 15:41 | 44.16676 | -121.08230 | 39003 ft | 483 kts | 161° |
| 2026-05-05 15:41 | 44.10150 | -121.05926 | 39024 ft | 484 kts | 161° |
| 2026-05-05 15:42 | 44.03623 | -121.03626 | 39007 ft | 484 kts | 161° |
| 2026-05-05 15:42 | 43.97111 | -121.01338 | 38996 ft | 482 kts | 161° |
| 2026-05-05 15:43 | 43.90618 | -120.99060 | 38977 ft | 481 kts | 160° |
| 2026-05-05 15:43 | 43.84167 | -120.96802 | 38960 ft | 481 kts | 161° |
| 2026-05-05 15:44 | 43.77680 | -120.94536 | 38938 ft | 481 kts | 160° |
| 2026-05-05 15:44 | 43.71191 | -120.92275 | 38934 ft | 481 kts | 160° |
| 2026-05-05 15:45 | 43.64751 | -120.90036 | 38934 ft | 481 kts | 160° |
| 2026-05-05 15:45 | 43.58267 | -120.87788 | 38935 ft | 480 kts | 160° |
| 2026-05-05 15:46 | 43.51792 | -120.85548 | 38920 ft | 480 kts | 161° |
| 2026-05-05 15:46 | 43.45328 | -120.83316 | 38933 ft | 478 kts | 161° |
| 2026-05-05 15:47 | 43.38892 | -120.81098 | 38934 ft | 476 kts | 160° |
| 2026-05-05 15:47 | 43.32503 | -120.78901 | 38935 ft | 476 kts | 160° |
| 2026-05-05 15:48 | 43.26071 | -120.76694 | 38934 ft | 477 kts | 160° |
| 2026-05-05 15:48 | 43.19628 | -120.74488 | 38939 ft | 478 kts | 160° |
| 2026-05-05 15:49 | 43.13178 | -120.72284 | 38942 ft | 478 kts | 160° |
| 2026-05-05 15:49 | 43.06769 | -120.70099 | 38941 ft | 478 kts | 160° |
| 2026-05-05 15:50 | 43.00306 | -120.67901 | 38937 ft | 478 kts | 160° |
| 2026-05-05 15:50 | 42.93855 | -120.65713 | 38938 ft | 477 kts | 160° |
| 2026-05-05 15:51 | 42.87409 | -120.63530 | 38954 ft | 477 kts | 160° |
| 2026-05-05 15:51 | 42.80969 | -120.61354 | 38940 ft | 477 kts | 160° |
| 2026-05-05 15:52 | 42.74572 | -120.59197 | 38946 ft | 477 kts | 160° |
| 2026-05-05 15:52 | 42.68136 | -120.57032 | 38951 ft | 476 kts | 160° |
| 2026-05-05 15:53 | 42.61704 | -120.54873 | 38944 ft | 476 kts | 160° |
| 2026-05-05 15:53 | 42.55280 | -120.52721 | 38945 ft | 476 kts | 160° |
| 2026-05-05 15:54 | 42.48902 | -120.50572 | 38945 ft | 474 kts | 158° |
| 2026-05-05 15:54 | 42.42566 | -120.48152 | 38940 ft | 472 kts | 156° |
| 2026-05-05 15:55 | 42.36269 | -120.45612 | 38946 ft | 472 kts | 156° |
| 2026-05-05 15:55 | 42.29967 | -120.43085 | 38945 ft | 473 kts | 156° |
| 2026-05-05 15:56 | 42.23691 | -120.40601 | 38938 ft | 473 kts | 156° |
| 2026-05-05 15:56 | 42.17365 | -120.38115 | 39026 ft | 474 kts | 156° |
| 2026-05-05 15:57 | 42.11035 | -120.35636 | 39031 ft | 474 kts | 156° |
| 2026-05-05 15:57 | 42.04703 | -120.33159 | 39014 ft | 474 kts | 156° |
| 2026-05-05 15:58 | 41.98366 | -120.30684 | 38990 ft | 474 kts | 156° |
| 2026-05-05 15:58 | 41.92077 | -120.28231 | 38965 ft | 474 kts | 156° |
| 2026-05-05 15:59 | 41.85750 | -120.25769 | 38943 ft | 474 kts | 156° |
| 2026-05-05 15:59 | 41.79419 | -120.23312 | 38929 ft | 474 kts | 156° |
| 2026-05-05 16:00 | 41.73082 | -120.20859 | 38923 ft | 474 kts | 156° |
| 2026-05-05 16:00 | 41.66799 | -120.18434 | 38923 ft | 473 kts | 156° |
| 2026-05-05 16:01 | 41.60468 | -120.15992 | 38938 ft | 474 kts | 156° |
| 2026-05-05 16:01 | 41.54135 | -120.13555 | 38918 ft | 473 kts | 156° |
| 2026-05-05 16:02 | 41.47813 | -120.11127 | 38926 ft | 472 kts | 156° |
| 2026-05-05 16:02 | 41.41506 | -120.08710 | 38923 ft | 471 kts | 156° |
| 2026-05-05 16:03 | 41.35244 | -120.06313 | 38912 ft | 472 kts | 156° |
| 2026-05-05 16:03 | 41.28935 | -120.03902 | 38909 ft | 472 kts | 156° |
| 2026-05-05 16:04 | 41.22624 | -120.01498 | 38904 ft | 472 kts | 155° |
| 2026-05-05 16:04 | 41.16314 | -119.99098 | 38895 ft | 472 kts | 156° |
| 2026-05-05 16:05 | 41.10036 | -119.96715 | 38888 ft | 472 kts | 156° |
| 2026-05-05 16:05 | 41.03723 | -119.94327 | 38877 ft | 472 kts | 155° |
| 2026-05-05 16:06 | 40.97412 | -119.91942 | 38881 ft | 471 kts | 155° |
| 2026-05-05 16:06 | 40.91104 | -119.89560 | 38901 ft | 471 kts | 156° |
| 2026-05-05 16:07 | 40.84799 | -119.87186 | 38876 ft | 471 kts | 156° |
| 2026-05-05 16:07 | 40.78499 | -119.84818 | 38873 ft | 471 kts | 156° |
| 2026-05-05 16:08 | 40.72240 | -119.82470 | 38872 ft | 471 kts | 156° |
| 2026-05-05 16:08 | 40.65936 | -119.80105 | 38868 ft | 472 kts | 156° |
| 2026-05-05 16:09 | 40.59614 | -119.77741 | 38869 ft | 472 kts | 156° |
| 2026-05-05 16:09 | 40.53296 | -119.75391 | 38870 ft | 472 kts | 156° |
| 2026-05-05 16:10 | 40.47024 | -119.73060 | 38869 ft | 471 kts | 156° |
| 2026-05-05 16:10 | 40.40709 | -119.70714 | 38869 ft | 471 kts | 156° |
| 2026-05-05 16:11 | 40.34401 | -119.68375 | 38876 ft | 471 kts | 156° |
| 2026-05-05 16:12 | 40.21818 | -119.63724 | 38895 ft | 471 kts | 156° |
| 2026-05-05 16:13 | 40.06045 | -119.57921 | 38892 ft | 471 kts | 156° |
| 2026-05-05 16:13 | 39.99739 | -119.55608 | 38895 ft | 470 kts | 157° |
| 2026-05-05 16:14 | 39.87166 | -119.51009 | 38914 ft | 472 kts | 158° |
| 2026-05-05 16:15 | 39.74550 | -119.46416 | 38913 ft | 470 kts | 158° |
| 2026-05-05 16:16 | 39.61989 | -119.41864 | 38922 ft | 470 kts | 158° |
| 2026-05-05 16:17 | 39.52553 | -119.38443 | 38925 ft | 469 kts | 158° |
| 2026-05-05 16:18 | 39.43174 | -119.35057 | 38918 ft | 468 kts | 158° |
| 2026-05-05 16:19 | 39.33758 | -119.31674 | 38921 ft | 468 kts | 158° |
| 2026-05-05 16:19 | 39.24538 | -119.27815 | 38914 ft | 457 kts | 146° |
| 2026-05-05 16:20 | 39.19536 | -119.23152 | 38916 ft | 443 kts | 131° |
| 2026-05-05 16:20 | 39.15067 | -119.17711 | 38925 ft | 442 kts | 129° |
| 2026-05-05 16:22 | 39.04119 | -119.03834 | 38915 ft | 442 kts | 129° |
| 2026-05-05 16:23 | 38.95308 | -118.92863 | 38913 ft | 443 kts | 129° |
| 2026-05-05 16:23 | 38.88661 | -118.84613 | 38910 ft | 443 kts | 130° |
| 2026-05-05 16:24 | 38.84226 | -118.79121 | 38913 ft | 443 kts | 130° |
| 2026-05-05 16:25 | 38.77608 | -118.70943 | 38906 ft | 443 kts | 130° |
| 2026-05-05 16:25 | 38.70952 | -118.62738 | 38908 ft | 443 kts | 131° |
| 2026-05-05 16:26 | 38.62058 | -118.51811 | 38998 ft | 444 kts | 131° |
| 2026-05-05 16:27 | 38.57630 | -118.46388 | 38988 ft | 444 kts | 131° |
| 2026-05-05 16:27 | 38.53170 | -118.40935 | 38977 ft | 444 kts | 131° |
| 2026-05-05 16:28 | 38.48695 | -118.35472 | 38949 ft | 445 kts | 132° |
| 2026-05-05 16:28 | 38.44219 | -118.30019 | 38923 ft | 445 kts | 132° |
| 2026-05-05 16:29 | 38.39763 | -118.24599 | 38913 ft | 446 kts | 133° |
| 2026-05-05 16:29 | 38.35267 | -118.19139 | 38891 ft | 447 kts | 133° |
| 2026-05-05 16:30 | 38.30756 | -118.13673 | 38888 ft | 448 kts | 133° |
| 2026-05-05 16:30 | 38.26239 | -118.08210 | 38891 ft | 448 kts | 133° |
| 2026-05-05 16:31 | 38.21749 | -118.02788 | 38894 ft | 448 kts | 133° |
| 2026-05-05 16:31 | 38.17224 | -117.97335 | 38885 ft | 448 kts | 133° |
| 2026-05-05 16:32 | 38.12699 | -117.91890 | 38883 ft | 448 kts | 133° |
| 2026-05-05 16:32 | 38.08169 | -117.86450 | 38892 ft | 448 kts | 134° |
| 2026-05-05 16:33 | 38.03664 | -117.81048 | 38885 ft | 449 kts | 134° |
| 2026-05-05 16:33 | 37.99075 | -117.75672 | 38885 ft | 449 kts | 136° |
| 2026-05-05 16:34 | 37.94331 | -117.70501 | 38883 ft | 450 kts | 137° |
| 2026-05-05 16:34 | 37.89582 | -117.65348 | 38884 ft | 450 kts | 137° |
| 2026-05-05 16:35 | 37.84833 | -117.60196 | 38880 ft | 449 kts | 137° |
| 2026-05-05 16:35 | 37.80116 | -117.55086 | 38881 ft | 450 kts | 137° |
| 2026-05-05 16:36 | 37.75370 | -117.49951 | 38887 ft | 449 kts | 138° |
| 2026-05-05 16:36 | 37.70613 | -117.44812 | 38886 ft | 450 kts | 138° |
| 2026-05-05 16:37 | 37.65850 | -117.39677 | 38889 ft | 450 kts | 138° |
| 2026-05-05 16:37 | 37.61092 | -117.34557 | 38892 ft | 450 kts | 138° |
| 2026-05-05 16:38 | 37.56362 | -117.29475 | 38890 ft | 450 kts | 138° |
| 2026-05-05 16:38 | 37.51587 | -117.24353 | 38892 ft | 451 kts | 138° |
| 2026-05-05 16:39 | 37.46724 | -117.19346 | 38894 ft | 452 kts | 142° |
| 2026-05-05 16:39 | 37.41572 | -117.14810 | 38895 ft | 452 kts | 144° |
| 2026-05-05 16:40 | 37.36395 | -117.10324 | 38890 ft | 452 kts | 144° |
| 2026-05-05 16:40 | 37.31221 | -117.05839 | 38890 ft | 452 kts | 144° |
| 2026-05-05 16:41 | 37.26079 | -117.01382 | 38889 ft | 452 kts | 144° |
| 2026-05-05 16:41 | 37.20901 | -116.96901 | 38889 ft | 452 kts | 144° |
| 2026-05-05 16:42 | 37.15718 | -116.92423 | 38886 ft | 452 kts | 144° |
| 2026-05-05 16:42 | 37.10532 | -116.87950 | 38887 ft | 452 kts | 144° |
| 2026-05-05 16:43 | 37.05345 | -116.83483 | 38882 ft | 453 kts | 145° |
| 2026-05-05 16:43 | 37.00157 | -116.79023 | 38880 ft | 453 kts | 145° |
| 2026-05-05 16:44 | 36.94964 | -116.74567 | 38609 ft | 451 kts | 145° |
| 2026-05-05 16:44 | 36.92416 | -116.72384 | 38084 ft | 449 kts | 144° |
| 2026-05-05 16:44 | 36.89838 | -116.70176 | 37530 ft | 448 kts | 144° |
| 2026-05-05 16:45 | 36.87271 | -116.67981 | 36954 ft | 447 kts | 144° |
| 2026-05-05 16:45 | 36.84712 | -116.65796 | 36187 ft | 445 kts | 143° |
| 2026-05-05 16:45 | 36.82151 | -116.63610 | 35375 ft | 446 kts | 143° |
| 2026-05-05 16:45 | 36.79590 | -116.61424 | 34578 ft | 446 kts | 142° |
| 2026-05-05 16:46 | 36.77023 | -116.59235 | 33764 ft | 446 kts | 141° |
| 2026-05-05 16:46 | 36.74462 | -116.57051 | 32821 ft | 446 kts | 142° |
| 2026-05-05 16:46 | 36.71901 | -116.54869 | 31925 ft | 445 kts | 142° |
| 2026-05-05 16:46 | 36.69380 | -116.52723 | 31078 ft | 444 kts | 143° |
| 2026-05-05 16:47 | 36.66841 | -116.50559 | 30300 ft | 441 kts | 142° |
| 2026-05-05 16:47 | 36.64508 | -116.48151 | 29517 ft | 432 kts | 132° |
| 2026-05-05 16:47 | 36.62478 | -116.45439 | 28709 ft | 425 kts | 129° |
| 2026-05-05 16:47 | 36.60534 | -116.42691 | 27912 ft | 420 kts | 129° |
| 2026-05-05 16:48 | 36.58626 | -116.39973 | 27132 ft | 415 kts | 129° |
| 2026-05-05 16:48 | 36.56733 | -116.37282 | 26378 ft | 410 kts | 130° |
| 2026-05-05 16:48 | 36.54861 | -116.34628 | 25659 ft | 405 kts | 130° |
| 2026-05-05 16:48 | 36.53013 | -116.32015 | 24972 ft | 400 kts | 130° |
| 2026-05-05 16:49 | 36.51202 | -116.29457 | 24220 ft | 398 kts | 131° |
| 2026-05-05 16:49 | 36.49380 | -116.26887 | 23519 ft | 394 kts | 132° |
| 2026-05-05 16:49 | 36.47576 | -116.24346 | 22793 ft | 389 kts | 131° |
| 2026-05-05 16:49 | 36.45800 | -116.21848 | 22064 ft | 383 kts | 131° |
| 2026-05-05 16:50 | 36.44047 | -116.19383 | 21328 ft | 379 kts | 131° |
| 2026-05-05 16:50 | 36.42311 | -116.16944 | 20599 ft | 374 kts | 131° |
| 2026-05-05 16:50 | 36.40599 | -116.14540 | 19982 ft | 368 kts | 131° |
| 2026-05-05 16:50 | 36.38938 | -116.12211 | 19684 ft | 352 kts | 131° |
| 2026-05-05 16:51 | 36.37349 | -116.09983 | 19412 ft | 338 kts | 131° |
| 2026-05-05 16:51 | 36.35831 | -116.07857 | 18969 ft | 331 kts | 130° |
| 2026-05-05 16:51 | 36.34315 | -116.05734 | 18405 ft | 328 kts | 131° |
| 2026-05-05 16:51 | 36.32801 | -116.03615 | 17986 ft | 327 kts | 130° |
| 2026-05-05 16:52 | 36.31300 | -116.01515 | 17601 ft | 323 kts | 131° |
| 2026-05-05 16:52 | 36.29814 | -115.99437 | 17200 ft | 321 kts | 131° |
| 2026-05-05 16:52 | 36.28336 | -115.97372 | 16759 ft | 320 kts | 131° |
| 2026-05-05 16:52 | 36.26863 | -115.95317 | 16344 ft | 318 kts | 131° |
| 2026-05-05 16:53 | 36.25410 | -115.93269 | 16012 ft | 314 kts | 130° |
| 2026-05-05 16:53 | 36.24040 | -115.91176 | 15690 ft | 312 kts | 128° |
| 2026-05-05 16:53 | 36.22703 | -115.89064 | 15362 ft | 310 kts | 128° |
| 2026-05-05 16:53 | 36.21351 | -115.86921 | 15057 ft | 320 kts | 128° |
| 2026-05-05 16:54 | 36.19987 | -115.84759 | 14749 ft | 316 kts | 128° |
| 2026-05-05 16:54 | 36.18663 | -115.82663 | 14436 ft | 311 kts | 128° |
| 2026-05-05 16:54 | 36.17340 | -115.80567 | 14125 ft | 306 kts | 129° |
| 2026-05-05 16:54 | 36.16042 | -115.78512 | 13977 ft | 301 kts | 129° |
| 2026-05-05 16:55 | 36.14760 | -115.76467 | 13965 ft | 302 kts | 127° |
| 2026-05-05 16:55 | 36.13678 | -115.74236 | 13975 ft | 304 kts | 116° |
| 2026-05-05 16:55 | 36.12859 | -115.71832 | 13878 ft | 303 kts | 112° |
| 2026-05-05 16:55 | 36.12105 | -115.69393 | 13646 ft | 303 kts | 111° |
| 2026-05-05 16:56 | 36.11363 | -115.66954 | 13450 ft | 303 kts | 112° |
| 2026-05-05 16:56 | 36.10619 | -115.64515 | 13283 ft | 303 kts | 111° |
| 2026-05-05 16:56 | 36.09873 | -115.62079 | 13108 ft | 303 kts | 111° |
| 2026-05-05 16:56 | 36.09126 | -115.59650 | 12927 ft | 301 kts | 111° |
| 2026-05-05 16:57 | 36.08384 | -115.57239 | 12746 ft | 300 kts | 111° |
| 2026-05-05 16:57 | 36.07651 | -115.54863 | 12569 ft | 299 kts | 112° |
| 2026-05-05 16:57 | 36.06913 | -115.52474 | 12384 ft | 297 kts | 111° |
| 2026-05-05 16:57 | 36.06175 | -115.50089 | 12204 ft | 297 kts | 111° |
| 2026-05-05 16:58 | 36.05437 | -115.47705 | 12034 ft | 297 kts | 112° |
| 2026-05-05 16:58 | 36.04700 | -115.45327 | 11988 ft | 296 kts | 111° |
| 2026-05-05 16:58 | 36.03963 | -115.42951 | 11984 ft | 296 kts | 111° |
| 2026-05-05 16:58 | 36.03299 | -115.40544 | 11660 ft | 296 kts | 103° |
| 2026-05-05 16:59 | 36.03252 | -115.38029 | 11249 ft | 296 kts | 76° |
| 2026-05-05 16:59 | 36.04266 | -115.35875 | 11023 ft | 292 kts | 42° |
| 2026-05-05 16:59 | 36.05619 | -115.34022 | 11091 ft | 293 kts | 60° |
| 2026-05-05 16:59 | 36.06457 | -115.31728 | 11054 ft | 293 kts | 77° |
| 2026-05-05 17:00 | 36.06644 | -115.29243 | 11004 ft | 291 kts | 88° |
| 2026-05-05 17:00 | 36.06497 | -115.26764 | 10773 ft | 289 kts | 105° |
| 2026-05-05 17:00 | 36.05833 | -115.24496 | 10584 ft | 280 kts | 114° |
| 2026-05-05 17:00 | 36.05033 | -115.22349 | 10434 ft | 270 kts | 115° |
| 2026-05-05 17:01 | 36.04224 | -115.20302 | 10299 ft | 261 kts | 116° |
| 2026-05-05 17:01 | 36.03433 | -115.18330 | 10177 ft | 251 kts | 116° |
| 2026-05-05 17:01 | 36.02674 | -115.16440 | 9949 ft | 242 kts | 116° |
| 2026-05-05 17:01 | 36.01932 | -115.14590 | 9529 ft | 239 kts | 116° |
| 2026-05-05 17:02 | 36.01195 | -115.12752 | 9123 ft | 238 kts | 116° |
| 2026-05-05 17:02 | 36.00550 | -115.10870 | 9008 ft | 239 kts | 105° |
| 2026-05-05 17:02 | 36.00290 | -115.08848 | 9007 ft | 239 kts | 96° |
| 2026-05-05 17:02 | 36.00171 | -115.06807 | 8973 ft | 238 kts | 94° |
| 2026-05-05 17:03 | 36.00075 | -115.04763 | 8538 ft | 239 kts | 94° |
| 2026-05-05 17:03 | 35.99980 | -115.02728 | 8146 ft | 236 kts | 94° |
| 2026-05-05 17:03 | 35.99930 | -115.00701 | 8006 ft | 237 kts | 92° |
| 2026-05-05 17:03 | 35.99910 | -114.98664 | 7586 ft | 238 kts | 93° |
| 2026-05-05 17:04 | 35.99897 | -114.96659 | 7206 ft | 235 kts | 92° |
| 2026-05-05 17:04 | 35.99896 | -114.94655 | 6981 ft | 232 kts | 90° |
| 2026-05-05 17:04 | 36.00227 | -114.92736 | 6676 ft | 229 kts | 65° |
| 2026-05-05 17:04 | 36.01267 | -114.91283 | 6408 ft | 229 kts | 38° |
| 2026-05-05 17:05 | 36.02638 | -114.90297 | 5993 ft | 229 kts | 20° |
| 2026-05-05 17:05 | 36.04200 | -114.90107 | 5643 ft | 229 kts | 348° |
| 2026-05-05 17:05 | 36.05637 | -114.90852 | 5355 ft | 219 kts | 327° |
| 2026-05-05 17:05 | 36.06659 | -114.92123 | 5156 ft | 204 kts | 296° |
| 2026-05-05 17:06 | 36.07169 | -114.93695 | 4977 ft | 194 kts | 283° |
| 2026-05-05 17:06 | 36.07371 | -114.95316 | 4813 ft | 187 kts | 269° |
| 2026-05-05 17:06 | 36.07372 | -114.96879 | 4592 ft | 182 kts | 267° |
| 2026-05-05 17:06 | 36.07371 | -114.98425 | 4352 ft | 179 kts | 267° |
| 2026-05-05 17:07 | 36.07373 | -114.99958 | 4124 ft | 178 kts | 266° |
| 2026-05-05 17:07 | 36.07372 | -115.01482 | 3893 ft | 177 kts | 268° |
| 2026-05-05 17:07 | 36.07372 | -115.03006 | 3657 ft | 177 kts | 268° |
| 2026-05-05 17:07 | 36.07372 | -115.04505 | 3453 ft | 171 kts | 266° |
| 2026-05-05 17:08 | 36.07370 | -115.05920 | 3186 ft | 157 kts | 268° |
| 2026-05-05 17:08 | 36.07369 | -115.07191 | 2992 ft | 141 kts | 267° |
| 2026-05-05 17:08 | 36.07369 | -115.08401 | 2804 ft | 141 kts | 266° |
| 2026-05-05 17:08 | 36.07368 | -115.09612 | 2610 ft | 141 kts | 266° |
| 2026-05-05 17:09 | 36.07363 | -115.10822 | 2456 ft | 142 kts | 266° |
| 2026-05-05 17:09 | 36.07365 | -115.12031 | 2263 ft | 139 kts | 267° |
| 2026-05-05 17:09 | 36.07369 | -115.13212 | 2138 ft | 130 kts | 266° |
| 2026-05-05 17:09 | 36.07363 | -115.14193 | 2129 ft | 85 kts | 271° |
| 2026-05-05 17:10 | 36.07367 | -115.14698 | 2128 ft | 42 kts | 274° |
| 2026-05-05 17:10 | 36.07421 | -115.14938 | 2126 ft | 18 kts | 297° |
| 2026-05-05 17:10 | 36.07485 | -115.15074 | 2124 ft | 16 kts | 309° |
| 2026-05-05 17:10 | 36.07526 | -115.15121 | 2130 ft | 0 kts | 325° |
| 2026-05-05 17:11 | 36.07526 | -115.15122 | 2130 ft | 1 kts | 325° |
| 2026-05-05 17:11 | 36.07549 | -115.15140 | 2127 ft | 5 kts | 330° |
| 2026-05-05 17:11 | 36.07592 | -115.15169 | 2128 ft | 9 kts | 332° |
| 2026-05-05 17:11 | 36.07666 | -115.15213 | 2129 ft | 15 kts | 335° |
| 2026-05-05 17:12 | 36.07766 | -115.15257 | 2130 ft | 14 kts | 19° |
| 2026-05-05 17:12 | 36.07802 | -115.15158 | 2128 ft | 15 kts | 88° |
| 2026-05-05 17:12 | 36.07798 | -115.15023 | 2128 ft | 17 kts | 94° |
| 2026-05-05 17:12 | 36.07790 | -115.14880 | 2128 ft | 17 kts | 95° |
| 2026-05-05 17:13 | 36.07778 | -115.14725 | 2124 ft | 19 kts | 95° |
| 2026-05-05 17:13 | 36.07767 | -115.14554 | 2122 ft | 20 kts | 94° |
| 2026-05-05 17:13 | 36.07758 | -115.14391 | 2124 ft | 19 kts | 94° |
| 2026-05-05 17:13 | 36.07777 | -115.14253 | 2124 ft | 16 kts | 28° |
| 2026-05-05 17:14 | 36.07886 | -115.14241 | 2119 ft | 16 kts | 0° |
| 2026-05-05 17:14 | 36.08004 | -115.14241 | 2116 ft | 18 kts | 0° |
| 2026-05-05 17:14 | 36.08116 | -115.14175 | 2110 ft | 19 kts | 62° |
| 2026-05-05 17:14 | 36.08116 | -115.14054 | 2113 ft | 6 kts | 130° |
| 2026-05-05 17:15 | 36.08097 | -115.14029 | 2113 ft | 2 kts | 134° |
| 2026-05-05 17:15 | 36.08095 | -115.14027 | 2113 ft | 0 kts | 134° |
| 2026-05-05 17:15 | 36.08093 | -115.14025 | 2113 ft | 1 kts | 134° |